Time;durP1;ratioP1;P1;durP2;ratioP2;P2;SDS_P1;SDS_P2;PMS_P1;PMS_P2;Temp;Humidity;BMP_temperature;BMP_pressure;BME280_temperature;BME280_humidity;BME280_pressure;Samples;Min_cycle;Max_cycle;Signal;HPM_P1;HPM_P2
2022/07/26 00:01:36;;;;;;;4.10;3.00;;;;;;;21.33;50.26;97987.04;219256;1277;24240;-71
2022/07/26 00:07:00;;;;;;;4.10;2.80;;;;;;;21.21;50.53;97985.70;219356;1276;24238;-71
2022/07/26 00:12:02;;;;;;;6.40;3.30;;;;;;;21.12;50.83;97988.30;219266;1276;22751;-71
2022/07/26 00:17:05;;;;;;;4.60;3.20;;;;;;;21.05;51.17;97985.91;219326;1276;25907;-69
2022/07/26 00:27:36;;;;;;;3.60;2.90;;;;;;;20.94;51.62;97983.80;219281;1276;22551;-70
2022/07/26 00:32:39;;;;;;;3.80;3.00;;;;;;;20.85;51.71;97977.90;219286;1276;25258;-71
2022/07/26 00:37:42;;;;;;;4.80;3.60;;;;;;;20.75;51.97;97968.16;219528;1276;24483;-71
2022/07/26 00:42:55;;;;;;;4.40;3.10;;;;;;;20.66;52.23;97954.39;219283;1276;24386;-70
2022/07/26 00:48:06;;;;;;;3.40;3.10;;;;;;;20.58;52.44;97947.09;219229;1276;22623;-70
2022/07/26 00:53:45;;;;;;;5.80;3.50;;;;;;;20.45;52.91;97941.67;219158;1276;25536;-71
2022/07/26 00:58:50;;;;;;;3.50;3.10;;;;;;;20.31;53.12;97932.69;211655;1276;10388043;-69
2022/07/26 01:04:15;;;;;;;5.20;3.50;;;;;;;20.22;53.51;97926.77;219201;1277;25263;-70
2022/07/26 01:09:29;;;;;;;5.50;3.90;;;;;;;20.16;53.91;97931.14;219221;1276;22687;-71
2022/07/26 01:15:00;;;;;;;6.60;3.50;;;;;;;20.14;54.20;97925.45;219147;1276;22565;-69
2022/07/26 01:20:08;;;;;;;6.20;3.80;;;;;;;20.11;54.13;97919.21;219385;1276;23849;-70
2022/07/26 01:25:11;;;;;;;4.30;3.60;;;;;;;20.06;54.39;97911.31;219407;1276;25303;-70
2022/07/26 01:30:14;;;;;;;4.10;3.30;;;;;;;19.99;54.64;97915.04;219273;1276;22561;-69
2022/07/26 01:35:16;;;;;;;4.40;3.50;;;;;;;19.96;54.88;97911.37;219248;1277;22560;-70
2022/07/26 01:40:19;;;;;;;5.10;3.90;;;;;;;19.94;54.94;97910.02;219254;1277;22560;-70
2022/07/26 01:45:44;;;;;;;8.00;3.60;;;;;;;19.87;55.18;97903.50;219281;1277;22796;-70
2022/07/26 01:51:07;;;;;;;5.00;3.50;;;;;;;19.84;55.41;97898.19;219271;1277;24685;-70
2022/07/26 01:56:16;;;;;;;4.40;3.80;;;;;;;19.81;55.53;97893.73;219291;1277;23088;-70
2022/07/26 02:01:27;;;;;;;4.20;3.50;;;;;;;19.77;55.81;97895.91;219487;1276;24228;-70
2022/07/26 02:06:41;;;;;;;4.80;3.60;;;;;;;19.77;56.04;97888.22;219253;1276;22589;-71
2022/07/26 02:12:05;;;;;;;5.90;4.00;;;;;;;19.79;56.25;97885.92;219443;1276;23523;-70
2022/07/26 02:17:08;;;;;;;5.40;4.30;;;;;;;19.83;56.26;97889.31;219215;1277;25285;-70
2022/07/26 02:22:13;;;;;;;4.10;3.70;;;;;;;19.85;56.13;97892.75;219296;1276;23811;-70
2022/07/26 02:27:15;;;;;;;4.90;4.00;;;;;;;19.86;56.32;97880.27;219261;1277;22621;-69
2022/07/26 02:37:40;;;;;;;4.90;3.90;;;;;;;19.86;56.54;97862.73;219215;1278;25516;-70
2022/07/26 02:43:26;;;;;;;4.50;4.00;;;;;;;19.88;56.64;97856.15;219198;1277;24146;-70
2022/07/26 02:48:30;;;;;;;6.00;4.20;;;;;;;19.90;56.65;97859.02;219239;1278;25271;-70
2022/07/26 02:53:35;;;;;;;6.00;4.40;;;;;;;19.90;57.00;97850.95;219312;1276;25314;-70
2022/07/26 02:58:46;;;;;;;6.50;4.70;;;;;;;19.90;57.01;97853.05;219297;1277;22540;-70
2022/07/26 03:03:55;;;;;;;5.70;4.40;;;;;;;19.90;57.27;97851.90;219260;1277;22583;-70
2022/07/26 03:08:58;;;;;;;7.60;4.50;;;;;;;19.93;57.38;97851.45;219234;1277;22639;-69
2022/07/26 03:14:01;;;;;;;7.90;4.70;;;;;;;19.96;57.33;97850.64;219247;1277;25215;-69
2022/07/26 03:19:13;;;;;;;8.90;4.10;;;;;;;20.01;57.43;97851.92;219256;1278;25414;-70
2022/07/26 03:24:15;;;;;;;5.10;4.30;;;;;;;20.08;57.63;97860.06;219264;1277;24920;-70
2022/07/26 03:29:33;;;;;;;5.40;4.50;;;;;;;20.12;57.64;97857.16;219264;1279;22543;-70
2022/07/26 03:34:56;;;;;;;4.60;4.20;;;;;;;20.12;57.49;97846.66;219300;1278;22547;-70
2022/07/26 03:40:32;;;;;;;5.50;4.50;;;;;;;20.11;57.61;97842.55;219288;1279;22554;-70
2022/07/26 03:45:35;;;;;;;5.10;4.40;;;;;;;20.16;57.67;97837.93;219289;1278;22557;-70
2022/07/26 03:50:40;;;;;;;5.60;4.40;;;;;;;20.23;57.83;97829.37;219248;1278;22544;-70
2022/07/26 04:01:40;;;;;;;;;;;;;;;;;;;;;
2022/07/26 04:06:55;;;;;;;5.40;4.60;;;;;;;20.64;57.97;97817.23;219351;1278;25585;-70
2022/07/26 04:11:58;;;;;;;5.70;5.10;;;;;;;20.77;57.94;97822.56;219214;1278;25355;-68
2022/07/26 04:17:00;;;;;;;7.30;5.30;;;;;;;20.89;58.17;97826.60;219276;1278;22576;-72
2022/07/26 04:22:03;;;;;;;7.00;4.70;;;;;;;21.00;58.18;97827.90;219301;1277;25386;-70
2022/07/26 04:27:08;;;;;;;5.80;5.20;;;;;;;21.11;58.33;97828.81;219243;1278;25404;-70
2022/07/26 04:32:17;;;;;;;7.20;5.00;;;;;;;21.18;58.27;97835.14;219286;1277;24379;-70
2022/07/26 04:37:39;;;;;;;5.40;4.80;;;;;;;21.25;58.20;97850.19;219350;1277;24798;-70
2022/07/26 04:42:41;;;;;;;8.30;6.20;;;;;;;21.33;57.83;97913.89;219175;1278;22556;-69
2022/07/26 04:47:48;;;;;;;7.50;5.30;;;;;;;21.32;57.26;97928.59;219284;1278;24309;-70
2022/07/26 04:52:54;;;;;;;6.50;5.50;;;;;;;21.23;57.25;97982.93;219422;1278;24309;-71
2022/07/26 04:58:00;;;;;;;7.10;5.80;;;;;;;21.19;57.43;97943.38;219308;1278;24381;-69
2022/07/26 05:03:44;;;;;;;7.80;6.20;;;;;;;21.25;57.39;97947.85;219171;1277;22693;-70
2022/07/26 05:08:46;;;;;;;6.80;5.90;;;;;;;21.42;57.24;97957.75;219312;1278;22568;-70
2022/07/26 05:13:49;;;;;;;6.70;5.80;;;;;;;21.66;57.17;97950.75;219173;1278;22707;-70
2022/07/26 05:18:54;;;;;;;8.70;6.30;;;;;;;21.92;57.08;97969.30;219349;1277;22538;-70
2022/07/26 05:23:57;;;;;;;7.90;6.00;;;;;;;22.18;56.66;97967.21;219269;1277;22710;-70
2022/07/26 05:28:59;;;;;;;7.20;6.00;;;;;;;22.39;56.27;97978.19;219256;1277;24442;-70
2022/07/26 05:34:31;;;;;;;10.20;6.80;;;;;;;22.59;56.30;97988.29;219241;1278;22623;-69
2022/07/26 05:39:37;;;;;;;8.00;7.20;;;;;;;22.73;56.48;97987.38;219171;1278;22709;-71
2022/07/26 05:44:59;;;;;;;11.60;6.90;;;;;;;22.81;56.66;97996.65;219074;1277;23053;-70
2022/07/26 05:50:03;;;;;;;8.50;7.60;;;;;;;22.83;57.06;98002.67;219184;1276;24300;-70
2022/07/26 05:55:06;;;;;;;8.80;6.90;;;;;;;22.85;57.45;98017.96;219082;1275;26123;-71
2022/07/26 06:00:32;;;;;;;10.10;8.00;;;;;;;22.94;57.92;98034.27;219272;1275;25002;-71
2022/07/26 06:05:38;;;;;;;9.70;8.60;;;;;;;23.00;57.94;98050.35;218629;1274;24276;-70
2022/07/26 06:10:53;;;;;;;12.60;9.70;;;;;;;23.04;58.40;98079.77;219019;1274;24306;-69
2022/07/26 06:16:00;;;;;;;12.20;10.30;;;;;;;23.04;58.57;98090.63;218859;1278;24170;-70
2022/07/26 06:21:02;;;;;;;13.40;10.40;;;;;;;22.86;58.90;98111.73;218954;1277;25270;-72
2022/07/26 06:26:05;;;;;;;18.30;16.40;;;;;;;22.61;59.54;98121.19;219004;1275;22544;-67
2022/07/26 06:31:21;;;;;;;15.10;11.30;;;;;;;22.43;60.12;98127.20;219110;1277;22743;-70
2022/07/26 06:36:34;;;;;;;12.40;9.80;;;;;;;22.30;61.09;98128.67;219205;1275;23556;-70
2022/07/26 06:41:49;;;;;;;10.90;9.30;;;;;;;22.15;61.86;98128.20;218922;1276;25476;-70
2022/07/26 06:47:04;;;;;;;12.20;11.10;;;;;;;21.91;62.60;98124.23;218921;1274;24056;-70
2022/07/26 06:52:10;;;;;;;13.80;12.40;;;;;;;21.62;63.27;98126.06;219012;1274;25386;-68
2022/07/26 06:57:12;;;;;;;14.50;13.00;;;;;;;21.29;64.45;98133.80;219002;1277;25366;-70
2022/07/26 07:02:15;;;;;;;14.10;12.80;;;;;;;21.03;65.70;98153.53;218993;1275;25375;-69
2022/07/26 07:07:30;;;;;;;14.20;12.70;;;;;;;20.78;66.76;98175.51;218993;1274;22992;-70
2022/07/26 07:12:38;;;;;;;13.70;11.70;;;;;;;20.55;67.77;98179.46;219312;1275;22883;-70
2022/07/26 07:17:41;;;;;;;16.10;14.30;;;;;;;20.35;68.88;98176.19;218871;1275;26549;-72
2022/07/26 07:22:43;;;;;;;16.80;14.90;;;;;;;20.11;69.78;98177.26;218883;1277;26457;-74
2022/07/26 07:27:46;;;;;;;19.60;16.40;;;;;;;19.90;70.74;98172.45;219128;1277;22558;-70
2022/07/26 07:32:51;;;;;;;15.50;13.80;;;;;;;19.71;71.84;98171.10;219172;1274;22546;-71
2022/07/26 07:37:55;;;;;;;14.50;12.90;;;;;;;19.55;72.80;98159.83;219022;1275;25333;-74
2022/07/26 07:42:57;;;;;;;18.50;15.50;;;;;;;19.40;73.58;98168.29;219292;1274;24276;-74
2022/07/26 07:48:00;;;;;;;15.60;14.00;;;;;;;19.30;74.53;98178.02;219123;1275;22563;-72
2022/07/26 07:53:05;;;;;;;16.70;14.60;;;;;;;19.24;75.41;98188.62;219026;1277;24341;-71
2022/07/26 07:58:11;;;;;;;11.80;10.40;;;;;;;19.19;75.98;98202.50;218905;1277;22986;-73
2022/07/26 08:03:22;;;;;;;13.00;11.40;;;;;;;19.13;76.42;98206.66;218910;1276;24328;-75
2022/07/26 08:08:40;;;;;;;14.80;10.70;;;;;;;19.03;76.74;98212.36;218991;1276;25365;-71
2022/07/26 08:13:48;;;;;;;12.30;11.00;;;;;;;18.94;76.95;98208.46;218645;1277;25257;-72
2022/07/26 08:18:53;;;;;;;12.70;11.40;;;;;;;18.86;77.23;98192.93;218439;1275;22911;-70
2022/07/26 08:24:02;;;;;;;14.40;11.70;;;;;;;18.75;77.77;98179.46;218407;1276;22707;-72
2022/07/26 08:29:08;;;;;;;15.30;12.50;;;;;;;18.65;78.19;98178.25;218403;1276;22533;-70
2022/07/26 08:34:34;;;;;;;15.10;13.10;;;;;;;18.57;78.68;98175.99;218284;1276;23843;-71
2022/07/26 09:05:38;;;;;;;17.80;14.70;;;;;;;18.71;81.01;98202.70;210902;1307;5334573;-68
2022/07/26 09:10:47;;;;;;;17.20;14.30;;;;;;;18.80;81.40;98231.33;219282;1281;22554;-71
2022/07/26 09:16:10;;;;;;;14.20;12.00;;;;;;;18.84;81.79;98281.27;220007;1280;22573;-70
2022/07/26 09:21:48;;;;;;;13.60;12.20;;;;;;;18.88;82.11;98303.70;219763;1281;24332;-67
2022/07/26 09:26:58;;;;;;;18.80;12.00;;;;;;;18.91;82.51;98316.42;219605;1280;22554;-70
2022/07/26 09:32:19;;;;;;;16.60;12.50;;;;;;;18.91;82.65;98329.37;219798;1281;24929;-68
2022/07/26 09:37:42;;;;;;;13.40;11.30;;;;;;;18.90;82.87;98332.90;219792;1281;23803;-69
2022/07/26 09:43:00;;;;;;;12.80;9.70;;;;;;;18.90;83.05;98335.70;220020;1280;22560;-70
2022/07/26 09:48:03;;;;;;;12.40;10.90;;;;;;;18.90;83.41;98342.44;220188;1280;22622;-68
2022/07/26 09:53:21;;;;;;;12.70;11.30;;;;;;;18.91;83.33;98346.80;219345;1280;25261;-68
2022/07/26 09:58:37;;;;;;;11.70;10.50;;;;;;;18.88;83.43;98354.73;219651;1280;23108;-68
2022/07/26 10:03:44;;;;;;;13.30;11.20;;;;;;;18.88;83.57;98355.27;219985;1280;22564;-67
2022/07/26 10:08:46;;;;;;;11.60;10.50;;;;;;;18.86;83.53;98356.98;219851;1281;22544;-74
2022/07/26 10:13:48;;;;;;;40.70;36.30;;;;;;;18.79;83.29;98356.76;219738;1281;24335;-68
2022/07/26 10:18:54;;;;;;;22.60;10.90;;;;;;;18.72;83.22;98364.02;219272;1282;25386;-68
2022/07/26 10:24:25;;;;;;;13.20;11.50;;;;;;;18.70;83.68;98370.02;220796;1273;25457;-69
2022/07/26 10:29:28;;;;;;;11.20;8.90;;;;;;;18.69;83.63;98379.38;221053;1273;22555;-69
2022/07/26 10:34:36;;;;;;;9.90;8.70;;;;;;;18.61;83.52;98387.65;219669;1273;22545;-71
2022/07/26 10:39:39;;;;;;;11.20;8.10;;;;;;;18.52;83.56;98393.02;221123;1273;24340;-71
2022/07/26 10:44:45;;;;;;;8.90;7.00;;;;;;;18.32;83.30;98392.05;219129;1273;24347;-70
2022/07/26 10:49:58;;;;;;;9.30;7.10;;;;;;;18.13;83.49;98391.20;219230;1273;24125;-70
2022/07/26 10:55:23;;;;;;;7.60;6.80;;;;;;;17.99;83.88;98386.58;220867;1273;24235;-78
2022/07/26 11:00:27;;;;;;;8.80;6.30;;;;;;;17.95;84.50;98392.67;220781;1273;24231;-69
2022/07/26 11:05:33;;;;;;;10.30;8.50;;;;;;;17.96;84.78;98394.54;221091;1273;24234;-71
2022/07/26 11:10:46;;;;;;;9.30;7.90;;;;;;;18.00;85.20;98393.16;221075;1274;22548;-70
2022/07/26 11:15:58;;;;;;;10.40;9.30;;;;;;;18.07;85.53;98393.05;220866;1273;25325;-69
2022/07/26 11:21:15;;;;;;;11.20;9.10;;;;;;;18.14;85.67;98389.42;220592;1273;25089;-69
2022/07/26 11:26:24;;;;;;;11.90;9.10;;;;;;;18.20;85.81;98387.04;221240;1273;24352;-73
2022/07/26 11:31:41;;;;;;;10.60;9.10;;;;;;;18.28;86.00;98387.16;220571;1273;25376;-70
2022/07/26 11:37:04;;;;;;;11.10;9.50;;;;;;;18.37;86.31;98385.29;220709;1273;23417;-71
2022/07/26 11:42:14;;;;;;;18.30;15.30;;;;;;;18.44;86.22;98387.41;220643;1273;25409;-71
2022/07/26 11:47:20;;;;;;;12.10;10.90;;;;;;;18.52;86.44;98386.42;220725;1273;22640;-71
2022/07/26 11:52:39;;;;;;;13.90;10.90;;;;;;;18.58;86.58;98388.20;220918;1273;22541;-71
2022/07/26 11:57:42;;;;;;;18.20;15.90;;;;;;;18.67;86.70;98383.98;220725;1273;25319;-70
2022/07/26 12:02:44;;;;;;;12.70;11.30;;;;;;;18.72;86.62;98388.36;220773;1273;22531;-71
2022/07/26 12:07:58;;;;;;;12.90;10.80;;;;;;;18.76;86.64;98395.44;220888;1273;22711;-70
2022/07/26 12:13:14;;;;;;;13.40;11.00;;;;;;;18.81;86.65;98403.46;221017;1273;22554;-69
2022/07/26 12:18:27;;;;;;;18.10;11.90;;;;;;;18.85;86.82;98409.77;221063;1273;22532;-72
2022/07/26 12:23:47;;;;;;;13.00;11.50;;;;;;;18.89;86.77;98412.66;220669;1273;25326;-72
2022/07/26 12:28:52;;;;;;;15.90;13.30;;;;;;;18.89;86.89;98410.56;220712;1273;23036;-71
2022/07/26 12:33:57;;;;;;;14.00;12.50;;;;;;;18.92;87.08;98414.20;220783;1273;24350;-72
2022/07/26 12:39:03;;;;;;;14.80;12.80;;;;;;;18.92;86.90;98415.67;220971;1273;22573;-73
2022/07/26 12:44:09;;;;;;;19.90;17.30;;;;;;;18.96;87.25;98413.67;220675;1273;24381;-72
2022/07/26 12:49:16;;;;;;;14.50;12.60;;;;;;;19.01;87.29;98418.52;220816;1273;22656;-73
2022/07/26 12:54:37;;;;;;;12.40;11.10;;;;;;;19.03;87.11;98415.92;220929;1273;24381;-72
2022/07/26 12:59:47;;;;;;;60.60;52.30;;;;;;;19.05;86.88;98415.04;220975;1273;22669;-72
2022/07/26 13:04:52;;;;;;;24.70;22.00;;;;;;;19.04;86.51;98413.85;220752;1273;24497;-73
2022/07/26 13:10:07;;;;;;;18.70;16.30;;;;;;;19.02;86.45;98418.93;220835;1273;22580;-70
2022/07/26 13:15:30;;;;;;;15.20;13.60;;;;;;;19.01;86.59;98423.56;220655;1273;22551;-72
2022/07/26 13:20:39;;;;;;;13.30;11.90;;;;;;;19.06;86.93;98412.18;220702;1273;25308;-71
2022/07/26 13:25:53;;;;;;;12.20;10.60;;;;;;;19.06;86.74;98407.70;220533;1273;22762;-72
2022/07/26 13:30:56;;;;;;;14.50;13.10;;;;;;;19.08;86.88;98405.11;220579;1273;22557;-72
2022/07/26 13:36:00;;;;;;;15.70;14.00;;;;;;;19.13;87.14;98395.67;220814;1273;22584;-71
2022/07/26 13:41:03;;;;;;;15.20;12.50;;;;;;;19.16;86.93;98405.38;221014;1273;22554;-71
2022/07/26 13:46:05;;;;;;;93.20;77.10;;;;;;;19.19;86.82;98403.10;221417;1270;22857;-71
2022/07/26 13:51:08;;;;;;;17.30;14.50;;;;;;;19.26;87.24;98394.95;221414;1270;22529;-71
2022/07/26 13:56:16;;;;;;;13.00;11.60;;;;;;;19.29;87.02;98406.42;221446;1270;25281;-71
2022/07/26 14:01:18;;;;;;;12.30;11.00;;;;;;;19.33;87.05;98415.66;221398;1271;24272;-71
2022/07/26 14:06:41;;;;;;;14.40;11.20;;;;;;;19.33;87.15;98413.10;221288;1270;22602;-72
2022/07/26 14:11:44;;;;;;;13.50;11.30;;;;;;;19.32;86.56;98401.83;221264;1270;22591;-72
2022/07/26 14:16:49;;;;;;;13.60;11.50;;;;;;;19.33;86.94;98400.83;221396;1271;24785;-71
2022/07/26 14:21:52;;;;;;;13.40;11.90;;;;;;;19.29;86.38;98408.98;221034;1271;22531;-70
2022/07/26 14:27:01;;;;;;;22.00;19.50;;;;;;;19.25;86.33;98413.92;221112;1272;22937;-71
2022/07/26 14:32:04;;;;;;;11.50;10.30;;;;;;;19.26;86.74;98414.73;221018;1271;22547;-72
2022/07/26 14:37:07;;;;;;;11.90;10.80;;;;;;;19.24;86.43;98419.19;221238;1273;22627;-71
2022/07/26 14:42:29;;;;;;;11.40;9.80;;;;;;;19.20;86.11;98420.34;221262;1270;24297;-72
2022/07/26 14:47:31;;;;;;;12.80;11.50;;;;;;;19.17;86.31;98421.67;221200;1270;22504;-71
2022/07/26 14:52:51;;;;;;;13.90;12.40;;;;;;;19.17;86.39;98424.61;221191;1270;22545;-73
2022/07/26 14:58:11;;;;;;;11.20;10.10;;;;;;;19.18;86.59;98426.66;221268;1270;24283;-71
2022/07/26 15:03:13;;;;;;;11.20;10.10;;;;;;;19.23;86.90;98419.01;221154;1271;24461;-71
2022/07/26 15:08:16;;;;;;;11.60;10.50;;;;;;;19.31;87.14;98410.02;221196;1270;22553;-72
2022/07/26 15:13:18;;;;;;;13.70;11.50;;;;;;;19.48;87.53;98412.16;221223;1270;22566;-70
2022/07/26 15:18:21;;;;;;;11.60;10.40;;;;;;;19.70;87.94;98411.90;221187;1270;24238;-70
2022/07/26 15:23:25;;;;;;;9.20;8.20;;;;;;;19.88;87.48;98420.45;221239;1270;22551;-71
2022/07/26 15:28:27;;;;;;;9.20;8.10;;;;;;;19.99;86.69;98418.01;221036;1270;22615;-70
2022/07/26 15:33:31;;;;;;;12.30;9.60;;;;;;;19.99;85.67;98422.59;221200;1270;24314;-71
2022/07/26 15:38:33;;;;;;;9.70;8.40;;;;;;;19.96;85.54;98420.75;221379;1271;22672;-71
2022/07/26 15:43:35;;;;;;;10.20;7.70;;;;;;;19.99;85.43;98418.39;221058;1270;22596;-71
2022/07/26 15:48:50;;;;;;;10.70;9.50;;;;;;;20.06;85.15;98418.21;221239;1270;22573;-70
2022/07/26 15:53:52;;;;;;;8.60;7.70;;;;;;;20.05;84.70;98419.90;221281;1270;22593;-71
2022/07/26 15:58:55;;;;;;;8.80;7.90;;;;;;;19.95;84.20;98419.19;221345;1269;22826;-71
2022/07/26 16:03:57;;;;;;;10.80;8.90;;;;;;;19.89;84.33;98407.80;221279;1270;22574;-71
2022/07/26 16:09:01;;;;;;;9.00;8.10;;;;;;;19.83;84.41;98412.35;221282;1270;22580;-71
2022/07/26 16:14:20;;;;;;;11.70;10.00;;;;;;;19.82;84.42;98407.83;221234;1271;24963;-69
2022/07/26 16:19:22;;;;;;;11.00;8.30;;;;;;;19.82;84.46;98409.21;221157;1270;22626;-71
2022/07/26 16:24:25;;;;;;;10.80;8.30;;;;;;;19.84;84.60;98406.91;221218;1270;22534;-71
2022/07/26 16:29:27;;;;;;;8.90;7.90;;;;;;;19.82;84.38;98406.89;221306;1270;26374;-71
2022/07/26 16:34:32;;;;;;;9.80;8.80;;;;;;;19.80;84.13;98409.65;221247;1270;25415;-70
2022/07/26 16:39:34;;;;;;;10.60;9.50;;;;;;;19.75;83.87;98413.09;221275;1270;24270;-71
2022/07/26 16:44:37;;;;;;;11.80;9.10;;;;;;;19.72;83.90;98414.59;221231;1270;22586;-70
2022/07/26 16:49:39;;;;;;;10.70;8.20;;;;;;;19.68;83.93;98415.67;221240;1270;25521;-70
2022/07/26 16:54:42;;;;;;;9.60;8.70;;;;;;;19.63;83.67;98410.21;220210;1270;25321;-70
2022/07/26 16:59:45;;;;;;;10.70;9.10;;;;;;;19.61;83.83;98403.42;221281;1270;22653;-70
2022/07/26 17:04:47;;;;;;;11.80;8.70;;;;;;;19.70;84.25;98406.09;221256;1270;25599;-71
2022/07/26 17:09:49;;;;;;;9.90;8.90;;;;;;;19.82;84.24;98407.83;221235;1270;26378;-70
2022/07/26 17:14:52;;;;;;;10.40;9.40;;;;;;;19.91;84.06;98408.45;221263;1272;25257;-70
2022/07/26 17:19:54;;;;;;;10.70;9.40;;;;;;;20.00;83.92;98405.67;221215;1270;24338;-69
2022/07/26 17:24:56;;;;;;;9.90;8.90;;;;;;;20.07;83.73;98405.80;221214;1270;24330;-71
2022/07/26 17:30:07;;;;;;;11.20;9.20;;;;;;;20.12;83.49;98404.02;221260;1270;23299;-70
2022/07/26 17:35:10;;;;;;;11.20;9.60;;;;;;;20.19;83.01;98403.59;221352;1270;22537;-70
2022/07/26 17:40:14;;;;;;;10.90;9.40;;;;;;;20.15;82.45;98407.05;221288;1270;23764;-69
2022/07/26 17:45:17;;;;;;;9.10;7.90;;;;;;;20.05;81.91;98402.65;220291;1271;24290;-70
2022/07/26 17:50:20;;;;;;;10.10;8.50;;;;;;;19.93;82.01;98405.84;221262;1270;22565;-70
2022/07/26 17:55:39;;;;;;;8.80;7.20;;;;;;;19.80;81.91;98405.05;221290;1270;22541;-69
2022/07/26 18:00:41;;;;;;;9.90;8.90;;;;;;;19.66;82.12;98398.00;221314;1270;24415;-71
2022/07/26 18:05:43;;;;;;;10.30;9.30;;;;;;;19.54;82.31;98399.32;221299;1270;22583;-71
2022/07/26 18:10:46;;;;;;;15.70;11.80;;;;;;;19.39;82.03;98399.88;220155;1270;22533;-71
2022/07/26 18:15:52;;;;;;;10.10;8.70;;;;;;;19.22;82.10;98400.69;221359;1270;22690;-71
2022/07/26 18:20:54;;;;;;;10.10;8.00;;;;;;;19.10;82.42;98407.09;221273;1270;24236;-70
2022/07/26 18:25:57;;;;;;;10.50;8.90;;;;;;;18.96;82.41;98409.18;221220;1271;25242;-70
2022/07/26 18:31:00;;;;;;;9.60;7.80;;;;;;;18.83;82.60;98407.77;221245;1270;24257;-69
2022/07/26 18:36:15;;;;;;;10.40;9.20;;;;;;;18.69;82.59;98408.05;220301;1270;22557;-72
2022/07/26 18:41:19;;;;;;;8.70;7.50;;;;;;;18.54;82.61;98412.27;220246;1270;22583;-70
2022/07/26 18:46:21;;;;;;;12.20;9.60;;;;;;;18.40;82.89;98418.43;221227;1271;22574;-70
2022/07/26 18:51:24;;;;;;;13.50;9.10;;;;;;;18.28;83.35;98423.73;221289;1270;23823;-70
2022/07/26 18:56:27;;;;;;;10.60;8.80;;;;;;;18.19;83.57;98427.38;221366;1270;24145;-70
2022/07/26 19:01:30;;;;;;;10.00;8.90;;;;;;;18.12;83.94;98429.73;221349;1270;23075;-70
2022/07/26 19:06:42;;;;;;;10.90;9.70;;;;;;;18.07;84.23;98433.45;220233;1270;22529;-70
2022/07/26 19:11:51;;;;;;;11.20;10.10;;;;;;;17.99;84.27;98436.67;220350;1270;22629;-70
2022/07/26 19:17:08;;;;;;;13.00;9.70;;;;;;;17.89;84.34;98437.01;220023;1271;25334;-70
2022/07/26 19:22:29;;;;;;;10.60;9.50;;;;;;;17.80;84.51;98444.63;220297;1270;22615;-72
2022/07/26 19:27:33;;;;;;;10.70;9.50;;;;;;;17.71;84.59;98447.80;220149;1270;25297;-71
2022/07/26 19:32:36;;;;;;;13.10;11.80;;;;;;;17.63;84.73;98453.92;221352;1270;24300;-70
2022/07/26 19:37:39;;;;;;;12.50;11.10;;;;;;;17.56;84.81;98455.02;221276;1271;22903;-70
2022/07/26 19:42:41;;;;;;;13.10;11.60;;;;;;;17.50;84.98;98457.02;220244;1271;25252;-70
2022/07/26 19:47:44;;;;;;;12.00;10.60;;;;;;;17.43;85.03;98454.42;220124;1271;22931;-70
2022/07/26 19:52:49;;;;;;;11.90;10.10;;;;;;;17.36;85.12;98458.70;220098;1271;25483;-70
2022/07/26 19:57:52;;;;;;;10.80;9.70;;;;;;;17.31;85.32;98455.58;221670;1270;23138;-70
2022/07/26 20:02:54;;;;;;;10.00;8.80;;;;;;;17.26;85.30;98456.23;220191;1271;24205;-70
2022/07/26 20:07:57;;;;;;;10.80;9.70;;;;;;;17.19;85.26;98457.81;220234;1270;24304;-71
2022/07/26 20:13:02;;;;;;;10.20;9.10;;;;;;;17.13;85.45;98460.64;220256;1271;22544;-70
2022/07/26 20:18:05;;;;;;;10.60;9.50;;;;;;;17.08;85.42;98459.48;219993;1272;25323;-70
2022/07/26 20:23:09;;;;;;;13.00;9.30;;;;;;;17.03;85.44;98457.21;220261;1271;22578;-70
2022/07/26 20:28:11;;;;;;;10.20;9.10;;;;;;;16.98;85.53;98457.08;220211;1271;23850;-70
2022/07/26 20:33:15;;;;;;;12.10;10.30;;;;;;;16.93;85.75;98457.92;220233;1270;24371;-71
2022/07/26 20:38:18;;;;;;;13.70;10.10;;;;;;;16.91;85.91;98463.19;220137;1271;24253;-69
2022/07/26 20:43:21;;;;;;;12.70;9.60;;;;;;;16.88;86.01;98463.02;220090;1271;24274;-70
2022/07/26 20:48:24;;;;;;;11.80;10.00;;;;;;;16.86;86.02;98461.55;220573;1271;22553;-70
2022/07/26 20:53:26;;;;;;;13.20;10.20;;;;;;;16.80;85.99;98462.81;220350;1271;22583;-72
2022/07/26 20:58:41;;;;;;;13.50;10.90;;;;;;;16.74;86.09;98461.33;220233;1271;22471;-70
2022/07/26 21:04:04;;;;;;;12.30;10.80;;;;;;;16.69;86.05;98463.77;221199;1272;22655;-70
2022/07/26 21:09:06;;;;;;;13.30;11.20;;;;;;;16.66;86.30;98468.69;219722;1272;516276;-69
2022/07/26 21:14:11;;;;;;;13.70;11.20;;;;;;;16.61;86.43;98466.77;220168;1274;22655;-70
2022/07/26 21:19:14;;;;;;;12.80;10.40;;;;;;;16.57;86.34;98469.96;220214;1271;22577;-70
2022/07/26 21:24:17;;;;;;;13.10;10.40;;;;;;;16.52;86.31;98473.31;220293;1271;22672;-70
2022/07/26 21:29:21;;;;;;;11.00;10.00;;;;;;;16.46;86.43;98477.39;220265;1271;22557;-70
2022/07/26 21:34:25;;;;;;;12.00;10.50;;;;;;;16.40;86.56;98479.58;219939;1274;25507;-70
2022/07/26 21:39:28;;;;;;;26.60;24.00;;;;;;;16.36;86.62;98485.98;219988;1271;22617;-70
2022/07/26 21:44:30;;;;;;;46.50;42.30;;;;;;;16.31;86.74;98481.91;220077;1271;22567;-70
2022/07/26 21:49:33;;;;;;;61.30;55.50;;;;;;;16.27;86.78;98482.83;220413;1271;24549;-70
2022/07/26 21:54:35;;;;;;;44.00;39.60;;;;;;;16.23;86.87;98482.64;220000;1271;23958;-71
2022/07/26 21:59:37;;;;;;;25.30;22.60;;;;;;;16.22;87.35;98479.03;220064;1270;22637;-70
2022/07/26 22:04:39;;;;;;;19.90;17.10;;;;;;;16.24;87.87;98477.33;220069;1270;25446;-71
2022/07/26 22:09:46;;;;;;;17.80;14.10;;;;;;;16.25;88.12;98477.21;220107;1274;23781;-70
2022/07/26 22:14:51;;;;;;;15.90;14.10;;;;;;;16.25;88.34;98478.52;220324;1271;22982;-71
2022/07/26 22:19:54;;;;;;;17.40;14.40;;;;;;;16.21;88.23;98474.90;220070;1274;25299;-70
2022/07/26 22:24:56;;;;;;;16.50;14.50;;;;;;;16.19;88.49;98472.83;220118;1270;25255;-71
2022/07/26 22:29:58;;;;;;;17.60;14.60;;;;;;;16.18;88.70;98484.61;220122;1271;25385;-70
2022/07/26 22:35:01;;;;;;;19.30;14.70;;;;;;;16.16;88.99;98483.98;221176;1270;23843;-70
2022/07/26 22:40:05;;;;;;;16.20;14.40;;;;;;;16.12;88.71;98483.48;220174;1271;23091;-71
2022/07/26 22:45:08;;;;;;;18.30;14.00;;;;;;;16.06;88.57;98488.90;221417;1270;22560;-70
2022/07/26 22:50:11;;;;;;;15.60;14.00;;;;;;;16.03;88.81;98489.66;220086;1271;22572;-70
2022/07/26 22:55:14;;;;;;;16.80;14.50;;;;;;;15.99;88.71;98488.17;220056;1271;22581;-70
2022/07/26 23:00:19;;;;;;;18.10;14.40;;;;;;;15.93;88.47;98488.59;220150;1271;22543;-71
2022/07/26 23:05:21;;;;;;;18.60;14.50;;;;;;;15.85;88.39;98487.62;220336;1271;22543;-70
2022/07/26 23:10:43;;;;;;;19.00;14.70;;;;;;;15.82;88.48;98484.09;219973;1270;22569;-71
2022/07/26 23:15:46;;;;;;;16.90;14.50;;;;;;;15.76;88.34;98485.15;220538;1271;25358;-70
2022/07/26 23:20:54;;;;;;;16.80;13.60;;;;;;;15.69;88.16;98482.11;220327;1272;22690;-70
2022/07/26 23:26:00;;;;;;;17.60;15.20;;;;;;;15.61;88.01;98480.37;220315;1270;25861;-70
2022/07/26 23:31:07;;;;;;;18.80;14.90;;;;;;;15.55;88.01;98473.13;220282;1272;25327;-71
2022/07/26 23:36:10;;;;;;;18.80;14.80;;;;;;;15.49;88.06;98477.85;220109;1271;22563;-70
2022/07/26 23:41:12;;;;;;;20.20;15.10;;;;;;;15.43;87.84;98469.98;220153;1271;22559;-70
2022/07/26 23:46:15;;;;;;;18.70;15.90;;;;;;;15.37;88.22;98474.08;220172;1271;22538;-70
2022/07/26 23:51:21;;;;;;;20.20;14.30;;;;;;;15.37;88.61;98477.94;220056;1271;22553;-70
2022/07/26 23:56:27;;;;;;;20.50;14.30;;;;;;;15.35;88.58;98484.47;220420;1273;22641;-70
